createdAt,value
2019-02-20T00:00:44.145Z,68.33
2019-02-20T00:03:13.018Z,73.35
2019-02-20T00:05:41.734Z,72.15
2019-02-20T00:08:10.887Z,73.00
2019-02-20T00:10:39.666Z,68.65
2019-02-20T00:13:08.565Z,75.80
2019-02-20T00:15:37.904Z,72.45
2019-02-20T00:18:06.745Z,76.45
2019-02-20T00:20:35.507Z,79.70
2019-02-20T00:23:04.159Z,76.75
2019-02-20T00:25:33.206Z,80.65
2019-02-20T00:28:02.225Z,81.85
2019-02-20T00:30:31.086Z,84.00
2019-02-20T00:32:59.866Z,79.42
2019-02-20T00:35:28.666Z,77.10
2019-02-20T00:37:57.427Z,81.80
2019-02-20T00:40:26.347Z,73.10
2019-02-20T00:42:55.044Z,75.50
2019-02-20T00:45:31.595Z,73.42
2019-02-20T00:48:01.905Z,72.32
2019-02-20T00:50:32.324Z,72.35
2019-02-20T00:53:19.050Z,66.50
2019-02-20T00:55:47.824Z,69.40
2019-02-20T00:58:16.727Z,67.50
2019-02-20T01:00:45.430Z,63.30
2019-02-20T01:03:14.093Z,62.90
2019-02-20T01:05:42.781Z,55.75
2019-02-20T01:08:11.460Z,62.35
2019-02-20T01:10:40.079Z,60.75
2019-02-20T01:13:08.791Z,58.40
2019-02-20T01:15:37.421Z,56.40
2019-02-20T01:18:06.065Z,55.80
2019-02-20T01:20:34.769Z,55.05
2019-02-20T01:23:03.388Z,53.80
2019-02-20T01:25:32.026Z,51.33
2019-02-20T01:28:00.754Z,52.58
2019-02-20T01:30:29.378Z,53.45
2019-02-20T01:32:58.078Z,52.55
2019-02-20T01:35:26.706Z,50.80
2019-02-20T01:37:55.371Z,57.62
2019-02-20T01:40:24.051Z,50.85
2019-02-20T01:42:52.711Z,51.33
2019-02-20T01:45:21.319Z,50.75
2019-02-20T01:47:50.074Z,44.70
2019-02-20T01:50:18.766Z,49.55
2019-02-20T01:52:47.680Z,50.25
2019-02-20T01:55:16.392Z,51.53
2019-02-20T01:57:45.022Z,49.90
2019-02-20T02:00:13.711Z,50.40
2019-02-20T02:02:42.344Z,43.65
2019-02-20T02:05:15.418Z,48.23
2019-02-20T02:07:41.342Z,46.60
2019-02-20T02:10:09.989Z,41.63
2019-02-20T02:12:38.693Z,41.75
2019-02-20T02:15:09.019Z,41.25
2019-02-20T02:17:37.648Z,43.52
2019-02-20T02:20:08.888Z,42.20
2019-02-20T02:22:37.559Z,39.63
2019-02-20T02:25:06.508Z,45.20
2019-02-20T02:27:35.172Z,39.60
2019-02-20T02:30:04.910Z,44.23
2019-02-20T02:32:33.647Z,39.70
2019-02-20T02:35:02.273Z,39.00
2019-02-20T02:37:30.905Z,39.23
2019-02-20T02:39:59.594Z,42.05
2019-02-20T02:42:28.238Z,46.65
2019-02-20T02:44:56.853Z,44.95
2019-02-20T02:47:25.510Z,48.40
2019-02-20T02:49:54.143Z,39.73
2019-02-20T02:52:22.854Z,39.33
2019-02-20T02:54:51.495Z,39.00
2019-02-20T02:57:20.159Z,45.25
2019-02-20T02:59:48.918Z,40.78
2019-02-20T03:02:17.531Z,41.98
2019-02-20T03:04:46.152Z,44.40
2019-02-20T03:07:14.840Z,44.63
2019-02-20T03:09:43.475Z,45.23
2019-02-20T03:12:12.213Z,45.90
2019-02-20T03:14:40.828Z,42.53
2019-02-20T03:17:09.482Z,41.85
2019-02-20T03:19:38.134Z,42.62
2019-02-20T03:22:06.762Z,41.02
2019-02-20T03:24:35.454Z,46.40
2019-02-20T03:27:04.114Z,42.35
2019-02-20T03:29:32.763Z,41.88
2019-02-20T03:32:01.450Z,44.03
2019-02-20T03:34:30.168Z,42.13
2019-02-20T03:36:58.799Z,46.28
2019-02-20T03:39:27.585Z,42.35
2019-02-20T03:41:56.270Z,46.28
2019-02-20T03:44:24.999Z,43.45
2019-02-20T03:46:53.633Z,46.95
2019-02-20T03:49:22.278Z,43.60
2019-02-20T03:51:50.964Z,40.48
2019-02-20T03:54:19.593Z,43.00
2019-02-20T03:56:48.235Z,41.15
2019-02-20T03:59:16.973Z,42.05
2019-02-20T04:01:45.607Z,41.05
2019-02-20T04:04:14.308Z,42.48
2019-02-20T04:06:42.942Z,38.70
2019-02-20T04:09:11.583Z,43.68
2019-02-20T04:11:40.276Z,39.78
2019-02-20T04:14:08.903Z,40.43
2019-02-20T04:16:37.531Z,40.45
2019-02-20T04:19:06.200Z,45.35
2019-02-20T04:21:34.832Z,42.93
2019-02-20T04:24:03.562Z,44.80
2019-02-20T04:26:32.257Z,45.20
2019-02-20T04:29:00.898Z,43.02
2019-02-20T04:31:29.605Z,43.55
2019-02-20T04:33:58.242Z,39.90
2019-02-20T04:36:26.872Z,43.55
2019-02-20T04:38:55.543Z,45.03
2019-02-20T04:41:24.185Z,42.43
2019-02-20T04:43:52.877Z,46.05
2019-02-20T04:46:21.516Z,44.15
2019-02-20T04:48:50.153Z,47.78
2019-02-20T04:51:18.859Z,45.45
2019-02-20T04:53:47.496Z,45.83
2019-02-20T04:56:16.138Z,43.00
2019-02-20T04:58:45.503Z,48.55
2019-02-20T05:01:14.144Z,43.35
2019-02-20T05:03:42.848Z,45.92
2019-02-20T05:06:11.493Z,40.67
2019-02-20T05:08:40.119Z,42.73
2019-02-20T05:11:08.783Z,50.20
2019-02-20T05:13:37.483Z,47.23
2019-02-20T05:16:06.124Z,52.75
2019-02-20T05:18:34.768Z,47.83
2019-02-20T05:21:03.451Z,50.88
2019-02-20T05:23:32.139Z,47.80
2019-02-20T05:26:00.764Z,42.33
2019-02-20T05:28:29.395Z,41.40
2019-02-20T05:30:58.067Z,45.43
2019-02-20T05:33:26.688Z,47.35
2019-02-20T05:35:55.388Z,43.40
2019-02-20T05:38:24.019Z,46.63
2019-02-20T05:40:52.640Z,47.30
2019-02-20T05:43:21.349Z,47.27
2019-02-20T05:45:49.968Z,46.63
2019-02-20T05:48:18.603Z,46.60
2019-02-20T05:50:47.276Z,44.23
2019-02-20T05:53:15.909Z,45.70
2019-02-20T05:55:44.604Z,43.13
2019-02-20T05:58:13.247Z,50.75
2019-02-20T06:00:41.905Z,51.25
2019-02-20T06:03:10.656Z,50.90
2019-02-20T06:05:39.290Z,52.35
2019-02-20T06:08:07.929Z,57.73
2019-02-20T06:10:36.634Z,79.17
2019-02-20T06:13:05.298Z,53.63
2019-02-20T06:15:34.017Z,40.52
2019-02-20T06:18:02.655Z,42.90
2019-02-20T06:20:31.357Z,46.15
2019-02-20T06:23:00.068Z,112.00
2019-02-20T06:25:28.726Z,415.58
2019-02-20T06:27:57.378Z,167.75
2019-02-20T06:30:26.044Z,53.75
2019-02-20T06:32:54.688Z,43.78
2019-02-20T06:35:23.393Z,39.03
2019-02-20T06:37:52.033Z,37.63
2019-02-20T06:40:20.673Z,39.20
2019-02-20T06:42:49.388Z,40.35
2019-02-20T06:45:18.047Z,34.88
2019-02-20T06:47:46.707Z,40.50
2019-02-20T06:50:15.403Z,37.53
2019-02-20T06:52:44.073Z,40.50
2019-02-20T06:55:13.070Z,37.30
2019-02-20T06:57:41.693Z,38.17
2019-02-20T07:00:14.223Z,36.85
2019-02-20T07:02:42.948Z,38.20
2019-02-20T07:05:31.676Z,36.05
2019-02-20T07:08:15.566Z,37.75
2019-02-20T07:10:53.378Z,33.95
2019-02-20T07:13:24.940Z,38.75
2019-02-20T07:16:02.744Z,39.95
2019-02-20T07:18:34.567Z,38.13
2019-02-20T07:21:12.232Z,133.78
2019-02-20T07:23:59.122Z,48.17
2019-02-20T07:26:40.196Z,38.58
2019-02-20T07:29:23.845Z,37.48
2019-02-20T07:31:52.488Z,45.03
2019-02-20T07:34:21.127Z,46.45
2019-02-20T07:36:49.833Z,89.85
2019-02-20T07:39:18.493Z,38.08
2019-02-20T07:41:47.150Z,106.12
2019-02-20T07:44:15.868Z,42.38
2019-02-20T07:46:44.513Z,79.03
2019-02-20T07:49:13.159Z,109.55
2019-02-20T07:51:41.828Z,92.90
2019-02-20T07:54:10.472Z,65.47
2019-02-20T07:56:39.209Z,107.22
2019-02-20T07:59:07.879Z,52.73
2019-02-20T08:01:36.509Z,93.47
2019-02-20T08:04:05.223Z,80.65
2019-02-20T08:06:33.863Z,81.42
2019-02-20T08:09:02.505Z,81.57
2019-02-20T08:11:31.201Z,95.55
2019-02-20T08:13:59.907Z,95.45
2019-02-20T08:16:28.633Z,78.45
2019-02-20T08:18:57.273Z,67.35
2019-02-20T08:21:25.913Z,77.78
2019-02-20T08:23:54.638Z,65.22
2019-02-20T08:26:23.368Z,56.15
2019-02-20T08:28:52.014Z,44.15
2019-02-20T08:31:20.710Z,42.25
2019-02-20T08:33:49.379Z,38.98
2019-02-20T08:36:18.118Z,37.88
2019-02-20T08:38:46.789Z,38.98
2019-02-20T08:41:15.504Z,39.08
2019-02-20T08:43:44.224Z,45.28
2019-02-20T08:46:12.865Z,51.77
2019-02-20T08:48:41.516Z,55.20
2019-02-20T08:51:10.194Z,58.42
2019-02-20T08:53:38.839Z,42.13
2019-02-20T08:56:07.636Z,38.55
2019-02-20T08:58:36.351Z,38.83
2019-02-20T09:01:05.016Z,37.40
2019-02-20T09:03:33.721Z,36.48
2019-02-20T09:06:02.433Z,40.43
2019-02-20T09:08:31.074Z,43.80
2019-02-20T09:10:59.708Z,37.35
2019-02-20T09:13:28.386Z,32.95
2019-02-20T09:15:57.019Z,36.33
2019-02-20T09:18:25.725Z,36.93
2019-02-20T09:20:54.375Z,33.42
2019-02-20T09:23:23.009Z,36.83
2019-02-20T09:25:51.719Z,38.55
2019-02-20T09:28:20.367Z,36.83
2019-02-20T09:30:49.024Z,32.48
2019-02-20T09:33:17.714Z,35.23
2019-02-20T09:35:46.350Z,30.55
2019-02-20T09:38:15.067Z,33.50
2019-02-20T09:40:43.721Z,35.03
2019-02-20T09:43:12.362Z,34.38
2019-02-20T09:45:42.893Z,33.63
2019-02-20T09:48:11.474Z,32.28
2019-02-20T09:50:40.123Z,31.50
2019-02-20T09:53:08.834Z,28.80
2019-02-20T09:55:37.472Z,35.10
2019-02-20T09:58:06.190Z,29.95
2019-02-20T10:00:34.850Z,27.58
2019-02-20T10:03:03.494Z,29.07
2019-02-20T10:05:32.208Z,30.72
2019-02-20T10:08:00.859Z,31.17
2019-02-20T10:10:29.497Z,28.15
2019-02-20T10:12:58.175Z,29.20
2019-02-20T10:15:26.810Z,29.00
2019-02-20T10:17:55.537Z,26.70
2019-02-20T10:20:24.188Z,29.40
2019-02-20T10:22:52.820Z,26.85
2019-02-20T10:25:21.537Z,28.98
2019-02-20T10:27:50.167Z,27.10
2019-02-20T10:30:19.822Z,24.37
2019-02-20T10:32:48.489Z,27.15
2019-02-20T10:35:17.123Z,23.38
2019-02-20T10:37:45.868Z,22.30
2019-02-20T10:40:14.516Z,36.80
2019-02-20T10:42:43.155Z,23.12
2019-02-20T10:45:12.967Z,27.15
2019-02-20T10:47:41.603Z,26.27
2019-02-20T10:50:14.470Z,27.15
2019-02-20T10:52:43.152Z,29.23
2019-02-20T10:55:11.843Z,30.12
2019-02-20T10:57:40.565Z,30.17
2019-02-20T11:00:23.423Z,27.48
2019-02-20T11:02:44.087Z,25.10
2019-02-20T11:05:12.828Z,27.13
2019-02-20T11:07:41.466Z,24.47
2019-02-20T11:10:10.123Z,24.35
2019-02-20T11:12:38.852Z,22.87
2019-02-20T11:15:08.319Z,20.37
2019-02-20T11:17:37.508Z,22.22
2019-02-20T11:20:09.253Z,17.87
2019-02-20T11:22:37.908Z,20.45
2019-02-20T11:25:11.959Z,21.05
2019-02-20T11:27:40.641Z,20.68
2019-02-20T11:30:17.949Z,20.57
2019-02-20T11:32:46.593Z,16.15
2019-02-20T11:35:15.238Z,17.45
2019-02-20T11:37:43.967Z,22.55
2019-02-20T11:40:13.504Z,19.40
2019-02-20T11:42:42.128Z,18.10
2019-02-20T11:45:15.384Z,19.52
2019-02-20T11:47:44.093Z,12.95
2019-02-20T11:50:12.724Z,15.85
2019-02-20T11:52:41.353Z,14.60
2019-02-20T11:55:11.734Z,18.85
2019-02-20T11:57:40.583Z,16.57
2019-02-20T12:00:12.083Z,17.52
2019-02-20T12:02:42.183Z,21.85
2019-02-20T12:05:11.077Z,17.70
2019-02-20T12:07:39.723Z,18.27
2019-02-20T12:10:12.673Z,14.93
2019-02-20T12:12:41.393Z,18.90
2019-02-20T12:15:10.040Z,16.65
2019-02-20T12:17:38.766Z,17.52
2019-02-20T12:20:08.623Z,19.57
2019-02-20T12:22:37.258Z,17.92
2019-02-20T12:25:08.606Z,18.82
2019-02-20T12:27:37.238Z,18.27
2019-02-20T12:30:07.949Z,14.85
2019-02-20T12:32:36.580Z,16.95
2019-02-20T12:35:06.909Z,14.47
2019-02-20T12:37:35.623Z,17.65
2019-02-20T12:40:05.664Z,17.52
2019-02-20T12:42:34.307Z,16.15
2019-02-20T12:45:02.963Z,17.05
2019-02-20T12:47:31.624Z,15.80
2019-02-20T12:50:00.390Z,18.12
2019-02-20T12:52:29.038Z,18.92
2019-02-20T12:54:57.679Z,17.77
2019-02-20T12:57:26.588Z,15.30
2019-02-20T12:59:55.242Z,15.63
2019-02-20T13:02:23.894Z,10.65
2019-02-20T13:04:54.127Z,16.25
2019-02-20T13:07:22.775Z,11.63
2019-02-20T13:09:51.478Z,19.02
2019-02-20T13:12:20.118Z,10.43
2019-02-20T13:14:48.753Z,11.63
2019-02-20T13:17:17.445Z,4.87
2019-02-20T13:19:46.067Z,10.43
2019-02-20T13:22:14.707Z,17.60
2019-02-20T13:24:43.986Z,20.23
2019-02-20T13:27:12.692Z,14.33
2019-02-20T13:29:41.393Z,5.22
2019-02-20T13:32:10.032Z,5.90
2019-02-20T13:34:38.668Z,13.50
2019-02-20T13:37:07.368Z,12.10
2019-02-20T13:39:35.998Z,17.00
2019-02-20T13:42:04.632Z,10.98
2019-02-20T13:44:33.682Z,12.58
2019-02-20T13:47:02.323Z,11.80
2019-02-20T13:49:31.021Z,13.28
2019-02-20T13:51:59.733Z,27.45
2019-02-20T13:54:28.373Z,10.05
2019-02-20T13:57:01.812Z,97.12
2019-02-20T13:59:27.477Z,18.32
2019-02-20T14:01:56.386Z,23.92
2019-02-20T14:04:25.104Z,5.67
2019-02-20T14:06:53.753Z,9.98
2019-02-20T14:09:22.473Z,15.85
2019-02-20T14:11:51.183Z,31.00
2019-02-20T14:14:19.815Z,69.15
2019-02-20T14:16:48.508Z,13.43
2019-02-20T14:19:17.164Z,19.42
2019-02-20T14:21:45.863Z,15.85
2019-02-20T14:24:14.500Z,9.73
2019-02-20T14:26:43.123Z,8.18
2019-02-20T14:29:12.049Z,16.48
2019-02-20T14:31:42.778Z,20.50
2019-02-20T14:34:11.533Z,18.55
2019-02-20T14:36:40.407Z,12.20
2019-02-20T14:39:09.353Z,15.05
2019-02-20T14:41:38.273Z,22.50
2019-02-20T14:44:07.123Z,15.68
2019-02-20T14:46:36.363Z,19.62
2019-02-20T14:49:05.353Z,14.25
2019-02-20T14:51:34.194Z,13.30
2019-02-20T14:54:03.038Z,12.40
2019-02-20T14:56:32.027Z,15.43
2019-02-20T14:59:00.872Z,14.95
2019-02-20T15:01:29.793Z,20.77
2019-02-20T15:03:58.633Z,11.83
2019-02-20T15:06:27.952Z,14.23
2019-02-20T15:08:56.867Z,9.85
2019-02-20T15:11:25.787Z,13.30
2019-02-20T15:13:55.487Z,11.85
2019-02-20T15:16:24.483Z,12.60
2019-02-20T15:18:53.331Z,53.23
2019-02-20T15:21:22.348Z,5.60
2019-02-20T15:23:51.282Z,7.83
2019-02-20T15:26:23.476Z,15.90
2019-02-20T15:28:52.719Z,11.48
2019-02-20T15:31:21.858Z,7.08
2019-02-20T15:33:50.787Z,7.05
2019-02-20T15:36:19.777Z,26.65
2019-02-20T15:38:48.909Z,12.33
2019-02-20T15:41:18.093Z,17.00
2019-02-20T15:43:47.136Z,23.55
2019-02-20T15:46:16.294Z,21.27
2019-02-20T15:48:45.487Z,26.95
2019-02-20T15:51:14.590Z,16.40
2019-02-20T15:53:45.803Z,24.63
2019-02-20T15:56:15.861Z,22.70
2019-02-20T15:58:45.083Z,26.17
2019-02-20T16:01:14.377Z,27.93
2019-02-20T16:03:43.512Z,29.27
2019-02-20T16:06:12.531Z,28.80
2019-02-20T16:08:41.928Z,20.62
2019-02-20T16:11:10.958Z,35.90
2019-02-20T16:13:40.056Z,37.90
2019-02-20T16:16:09.283Z,59.48
2019-02-20T16:18:39.327Z,20.95
2019-02-20T16:21:08.562Z,23.40
2019-02-20T16:23:39.163Z,22.80
2019-02-20T16:26:08.315Z,27.55
2019-02-20T16:28:37.363Z,29.15
2019-02-20T16:31:06.593Z,43.10
2019-02-20T16:33:35.776Z,73.25
2019-02-20T16:36:04.823Z,40.40
2019-02-20T16:38:34.018Z,33.85
2019-02-20T16:41:04.644Z,28.80
2019-02-20T16:43:34.079Z,34.53
2019-02-20T16:46:03.117Z,31.30
2019-02-20T16:48:32.263Z,27.37
2019-02-20T16:51:01.544Z,31.25
2019-02-20T16:53:30.688Z,29.42
2019-02-20T16:56:00.360Z,45.78
2019-02-20T16:58:29.517Z,37.60
2019-02-20T17:00:58.727Z,38.55
2019-02-20T17:03:28.057Z,41.33
2019-02-20T17:05:57.092Z,41.63
2019-02-20T17:08:26.237Z,37.15
2019-02-20T17:10:55.917Z,36.05
2019-02-20T17:13:25.071Z,35.03
2019-02-20T17:15:54.198Z,41.25
2019-02-20T17:18:23.379Z,28.77
2019-02-20T17:20:52.426Z,26.35
2019-02-20T17:23:21.735Z,29.98
2019-02-20T17:25:51.263Z,30.20
2019-02-20T17:28:20.308Z,28.30
2019-02-20T17:30:49.553Z,35.10
2019-02-20T17:33:18.524Z,49.98
2019-02-20T17:35:47.752Z,30.05
2019-02-20T17:38:17.044Z,33.85
2019-02-20T17:40:46.174Z,34.73
2019-02-20T17:43:15.495Z,37.63
2019-02-20T17:45:44.560Z,36.55
2019-02-20T17:48:13.778Z,39.50
2019-02-20T17:50:42.907Z,37.25
2019-02-20T17:53:11.932Z,41.53
2019-02-20T17:55:42.698Z,37.17
2019-02-20T17:58:15.200Z,34.00
2019-02-20T18:00:42.946Z,38.60
2019-02-20T18:03:12.189Z,42.40
2019-02-20T18:05:41.381Z,34.67
2019-02-20T18:08:10.459Z,36.93
2019-02-20T18:10:39.604Z,38.28
2019-02-20T18:13:08.670Z,37.93
2019-02-20T18:15:37.873Z,38.88
2019-02-20T18:18:07.122Z,44.88
2019-02-20T18:20:36.317Z,36.88
2019-02-20T18:23:05.497Z,41.13
2019-02-20T18:25:34.662Z,42.38
2019-02-20T18:28:03.949Z,51.98
2019-02-20T18:30:33.169Z,44.30
2019-02-20T18:33:02.370Z,44.70
2019-02-20T18:35:31.739Z,37.10
2019-02-20T18:38:01.060Z,35.95
2019-02-20T18:40:30.257Z,40.67
2019-02-20T18:42:59.692Z,38.92
2019-02-20T18:45:29.084Z,39.23
2019-02-20T18:47:58.349Z,33.90
2019-02-20T18:50:27.948Z,33.92
2019-02-20T18:52:57.329Z,33.45
2019-02-20T18:55:26.711Z,34.95
2019-02-20T18:57:55.968Z,45.17
2019-02-20T19:00:25.114Z,41.42
2019-02-20T19:02:54.408Z,59.90
2019-02-20T19:05:23.699Z,79.05
2019-02-20T19:07:52.978Z,54.80
2019-02-20T19:10:33.988Z,50.73
2019-02-20T19:13:39.094Z,53.68
2019-02-20T19:16:38.251Z,40.55
2019-02-20T19:19:25.229Z,85.32
2019-02-20T19:22:12.191Z,71.10
2019-02-20T19:24:46.995Z,59.38
2019-02-20T19:27:33.972Z,62.43
2019-02-20T19:30:22.493Z,53.17
2019-02-20T19:33:06.418Z,49.67
2019-02-20T19:35:58.464Z,51.30
2019-02-20T19:38:50.141Z,69.97
2019-02-20T19:41:39.073Z,54.27
2019-02-20T19:44:17.317Z,50.58
2019-02-20T19:46:52.393Z,62.13
2019-02-20T19:49:47.319Z,42.90
2019-02-20T19:52:28.174Z,47.53
2019-02-20T19:55:06.255Z,56.58
2019-02-20T19:57:47.509Z,47.60
2019-02-20T20:00:42.010Z,51.92
2019-02-20T20:03:29.130Z,42.40
2019-02-20T20:06:01.127Z,35.80
2019-02-20T20:08:33.365Z,40.35
2019-02-20T20:11:14.331Z,38.88
2019-02-20T20:14:15.368Z,42.27
2019-02-20T20:16:59.040Z,36.75
2019-02-20T20:19:42.886Z,44.48
2019-02-20T20:22:37.442Z,39.53
2019-02-20T20:28:08.929Z,39.20
2019-02-20T20:30:57.596Z,42.80
2019-02-20T20:33:38.031Z,46.33
2019-02-20T20:36:44.694Z,48.40
2019-02-20T20:39:31.697Z,54.58
2019-02-20T20:42:21.856Z,35.33
2019-02-20T20:45:05.537Z,46.55
2019-02-20T20:47:37.635Z,29.45
2019-02-20T20:50:21.777Z,34.38
2019-02-20T20:56:00.375Z,33.30
2019-02-20T20:58:44.180Z,33.18
2019-02-20T21:01:36.560Z,36.65
2019-02-20T21:04:20.585Z,43.85
2019-02-20T21:07:26.427Z,41.75
2019-02-20T21:09:58.572Z,38.85
2019-02-20T21:12:39.316Z,43.75
2019-02-20T21:15:29.638Z,41.53
2019-02-20T21:18:16.794Z,44.23
2019-02-20T21:21:10.275Z,54.80
2019-02-20T21:23:54.195Z,41.27
2019-02-20T21:26:35.127Z,46.65
2019-02-20T21:29:13.101Z,54.58
2019-02-20T21:31:57.355Z,51.15
2019-02-20T21:34:32.295Z,50.40
2019-02-20T21:37:39.134Z,50.12
2019-02-20T21:40:16.676Z,45.60
2019-02-20T21:43:05.156Z,43.70
2019-02-20T21:45:39.698Z,41.80
2019-02-20T21:48:43.798Z,53.33
2019-02-20T21:51:15.596Z,51.68
2019-02-20T21:54:21.037Z,46.98
2019-02-20T21:57:01.578Z,46.00
2019-02-20T21:59:45.198Z,51.45
2019-02-20T22:02:31.879Z,51.95
2019-02-20T22:05:13.037Z,49.27
2019-02-20T22:07:56.619Z,41.58
2019-02-20T22:10:46.196Z,41.28
2019-02-20T22:13:29.947Z,39.20
2019-02-20T22:16:35.079Z,39.05
2019-02-20T22:19:21.085Z,41.83
2019-02-20T22:22:15.384Z,38.75
2019-02-20T22:24:47.237Z,33.80
2019-02-20T22:27:43.092Z,41.05
2019-02-20T22:30:23.648Z,35.45
2019-02-20T22:33:22.357Z,34.80
2019-02-20T22:35:56.904Z,39.90
2019-02-20T22:38:48.484Z,33.20
2019-02-20T22:41:38.540Z,34.73
2019-02-20T22:44:43.918Z,36.65
2019-02-20T22:47:27.577Z,30.80
2019-02-20T22:50:05.318Z,35.33
2019-02-20T22:52:49.127Z,34.50
2019-02-20T22:55:38.937Z,39.75
2019-02-20T22:58:22.739Z,36.65
2019-02-20T23:01:00.757Z,39.38
2019-02-20T23:04:07.397Z,35.48
2019-02-20T23:06:44.777Z,38.48
2019-02-20T23:09:21.938Z,36.53
2019-02-20T23:12:09.143Z,40.38
2019-02-20T23:14:55.717Z,36.00
2019-02-20T23:17:26.955Z,38.85
2019-02-20T23:19:55.462Z,39.58
2019-02-20T23:22:24.522Z,37.98
2019-02-20T23:24:53.522Z,36.00
2019-02-20T23:27:22.483Z,36.70
2019-02-20T23:29:51.385Z,36.85
2019-02-20T23:32:20.926Z,39.63
2019-02-20T23:34:49.847Z,38.42
2019-02-20T23:37:18.684Z,33.18
2019-02-20T23:39:47.542Z,34.05
2019-02-20T23:42:16.466Z,32.00
2019-02-20T23:44:45.432Z,39.18
2019-02-20T23:47:14.460Z,39.30
2019-02-20T23:49:43.391Z,38.80
2019-02-20T23:52:12.227Z,36.55
2019-02-20T23:54:41.145Z,31.70
2019-02-20T23:57:10.012Z,31.93
2019-02-20T23:59:38.873Z,34.33
